Millheim, Texas
Current Conditions -  °F | °C
As of 6:35 AM on Friday 24 Oct 2014 (Local Time) from KELA Reporting Station
Clear Clear  
Wind Chill: 13°   Ceiling: Unl
Heat Index: 13°   Visibility: 10mi
Dew Point: 12°   Wind: 0mph
Humidity: 95%   Direction: NA
Pressure: 30.12"   Gusts: NA
Location:  29.7835°N, 96.2064°W
Report Text: KELA 241135Z AUTO 00000KT 10SM CLR 13/12 A3012 RMK AO2 T01300122
Loading
Personal Weather Stations






























Interactive Weather Map
Tropical Storm Tracking
New forecast layout! Learn more

10-Day Weather Forecast

Advertisements
Track Severe Weather on mobile